createdAt,value
2022-10-31T00:00:15.283Z,21.80
2022-10-31T00:02:42.344Z,21.79
2022-10-31T00:05:08.681Z,21.80
2022-10-31T00:07:34.997Z,21.78
2022-10-31T00:10:01.329Z,21.79
2022-10-31T00:12:27.685Z,21.78
2022-10-31T00:14:53.996Z,21.78
2022-10-31T00:17:20.329Z,21.78
2022-10-31T00:19:46.651Z,21.79
2022-10-31T00:22:13.000Z,21.77
2022-10-31T00:24:39.319Z,21.78
2022-10-31T00:27:05.638Z,21.77
2022-10-31T00:29:31.964Z,21.76
2022-10-31T00:31:58.280Z,21.75
2022-10-31T00:37:18.302Z,21.74
2022-10-31T00:39:46.116Z,21.75
2022-10-31T00:42:12.420Z,21.75
2022-10-31T00:44:38.754Z,21.74
2022-10-31T00:47:05.079Z,21.74
2022-10-31T00:49:31.417Z,21.74
2022-10-31T00:51:57.742Z,21.74
2022-10-31T00:54:24.072Z,21.73
2022-10-31T00:56:50.442Z,21.73
2022-10-31T00:59:16.845Z,21.71
2022-10-31T01:01:43.280Z,21.72
2022-10-31T01:04:09.696Z,21.71
2022-10-31T01:06:36.021Z,21.71
2022-10-31T01:09:02.360Z,21.70
2022-10-31T01:11:28.681Z,21.70
2022-10-31T01:13:55.051Z,21.71
2022-10-31T01:16:22.390Z,21.69
2022-10-31T01:18:50.054Z,21.71
2022-10-31T01:21:23.250Z,21.69
2022-10-31T01:23:49.788Z,21.69
2022-10-31T01:26:16.887Z,21.68
2022-10-31T01:28:50.255Z,21.68
2022-10-31T01:31:16.905Z,21.67
2022-10-31T01:33:43.255Z,21.67
2022-10-31T01:36:13.451Z,21.67
2022-10-31T01:38:39.783Z,21.67
2022-10-31T01:41:06.361Z,21.67
2022-10-31T01:43:49.771Z,21.66
2022-10-31T01:46:16.748Z,21.65
2022-10-31T01:48:43.608Z,21.66
2022-10-31T01:51:10.293Z,21.65
2022-10-31T01:53:36.616Z,21.66
2022-10-31T01:56:02.940Z,21.66
2022-10-31T01:58:30.556Z,21.65
2022-10-31T02:01:00.525Z,21.65
2022-10-31T02:03:29.739Z,21.63
2022-10-31T02:05:56.884Z,21.63
2022-10-31T02:08:27.413Z,21.60
2022-10-31T02:10:53.746Z,21.57
2022-10-31T02:13:20.179Z,21.58
2022-10-31T02:15:50.159Z,21.62
2022-10-31T02:18:16.484Z,21.62
2022-10-31T02:20:49.664Z,21.62
2022-10-31T02:23:15.921Z,21.58
2022-10-31T02:26:05.432Z,21.56
2022-10-31T02:28:35.921Z,21.55
2022-10-31T02:31:06.683Z,21.54
2022-10-31T02:33:36.523Z,21.53
2022-10-31T02:36:04.032Z,21.54
2022-10-31T02:38:43.914Z,21.56
2022-10-31T02:41:20.568Z,21.53
2022-10-31T02:43:59.412Z,21.53
2022-10-31T02:46:27.820Z,21.52
2022-10-31T02:48:54.173Z,21.50
2022-10-31T02:51:20.502Z,21.52
2022-10-31T02:53:47.943Z,21.56
2022-10-31T02:56:17.851Z,21.57
2022-10-31T02:59:05.444Z,21.53
2022-10-31T03:01:40.442Z,21.50
2022-10-31T03:04:18.532Z,21.50
2022-10-31T03:06:56.443Z,21.49
2022-10-31T03:09:24.308Z,21.52
2022-10-31T03:12:08.866Z,21.51
2022-10-31T03:14:48.456Z,21.51
2022-10-31T03:17:17.460Z,21.49
2022-10-31T03:19:44.891Z,21.48
2022-10-31T03:22:15.556Z,21.48
2022-10-31T03:24:43.753Z,21.49
2022-10-31T03:27:10.966Z,21.47
2022-10-31T03:29:37.471Z,21.46
2022-10-31T03:32:09.003Z,21.50
2022-10-31T03:34:36.088Z,21.52
2022-10-31T03:37:02.875Z,21.52
2022-10-31T03:39:29.207Z,21.51
2022-10-31T03:42:21.853Z,21.53
2022-10-31T03:44:50.972Z,21.58
2022-10-31T03:47:17.881Z,21.59
2022-10-31T03:49:48.401Z,21.61
2022-10-31T03:52:18.820Z,21.61
2022-10-31T03:54:45.672Z,21.62
2022-10-31T03:57:17.634Z,21.63
2022-10-31T03:59:45.441Z,21.64
2022-10-31T04:02:18.051Z,21.62
2022-10-31T04:04:45.086Z,21.60
2022-10-31T04:07:12.358Z,21.58
2022-10-31T04:09:39.556Z,21.58
2022-10-31T04:12:06.391Z,21.62
2022-10-31T04:14:52.448Z,21.63
2022-10-31T04:17:19.478Z,21.65
2022-10-31T04:19:45.851Z,21.64
2022-10-31T04:22:12.689Z,21.62
2022-10-31T04:24:39.447Z,21.60
2022-10-31T04:27:05.863Z,21.63
2022-10-31T04:29:32.616Z,21.65
2022-10-31T04:31:58.990Z,21.67
2022-10-31T04:34:25.801Z,21.65
2022-10-31T04:36:52.187Z,21.67
2022-10-31T04:39:22.646Z,21.64
2022-10-31T04:42:18.193Z,21.62
2022-10-31T04:44:44.537Z,21.62
2022-10-31T04:47:10.915Z,21.62
2022-10-31T04:49:37.265Z,21.62
2022-10-31T04:52:03.681Z,21.62
2022-10-31T04:54:30.546Z,21.62
2022-10-31T04:57:41.060Z,21.61
2022-10-31T05:00:07.678Z,21.59
2022-10-31T05:02:34.516Z,21.61
2022-10-31T05:05:00.946Z,21.62
2022-10-31T05:07:27.304Z,21.63
2022-10-31T05:09:54.380Z,21.66
2022-10-31T05:12:20.730Z,21.67
2022-10-31T05:15:09.735Z,21.72
2022-10-31T05:18:02.693Z,21.72
2022-10-31T05:20:47.901Z,21.65
2022-10-31T05:23:25.445Z,21.65
2022-10-31T05:25:51.778Z,21.65
2022-10-31T05:28:18.268Z,21.66
2022-10-31T05:30:44.656Z,21.65
2022-10-31T05:33:14.552Z,21.66
2022-10-31T05:35:40.886Z,21.65
2022-10-31T05:38:27.213Z,21.63
2022-10-31T05:40:58.544Z,21.63
2022-10-31T05:43:25.532Z,21.64
2022-10-31T05:45:55.513Z,21.64
2022-10-31T05:48:40.461Z,21.65
2022-10-31T05:51:25.381Z,21.63
2022-10-31T05:53:51.758Z,21.64
2022-10-31T05:56:21.879Z,21.64
2022-10-31T05:58:49.477Z,21.65
2022-10-31T06:01:15.890Z,21.72
2022-10-31T06:03:44.808Z,21.72
2022-10-31T06:06:15.250Z,21.21
2022-10-31T06:08:41.586Z,21.31
2022-10-31T06:11:13.952Z,21.46
2022-10-31T06:13:58.672Z,21.63
2022-10-31T06:16:32.281Z,21.61
2022-10-31T06:19:08.745Z,21.60
2022-10-31T06:21:35.132Z,21.62
2022-10-31T06:24:01.542Z,21.64
2022-10-31T06:26:46.283Z,21.65
2022-10-31T06:29:13.419Z,21.63
2022-10-31T06:31:58.218Z,21.64
2022-10-31T06:34:24.591Z,21.64
2022-10-31T06:36:50.912Z,21.64
2022-10-31T06:39:20.805Z,21.64
2022-10-31T06:41:48.274Z,21.62
2022-10-31T06:44:16.484Z,21.80
2022-10-31T06:46:54.632Z,22.36
2022-10-31T06:49:37.260Z,22.52
2022-10-31T06:52:12.418Z,22.65
2022-10-31T06:54:38.806Z,22.78
2022-10-31T06:57:05.144Z,22.81
2022-10-31T06:59:31.896Z,22.91
2022-10-31T07:02:14.678Z,22.95
2022-10-31T07:04:42.933Z,23.02
2022-10-31T07:07:12.743Z,22.89
2022-10-31T07:09:39.575Z,22.95
2022-10-31T07:12:07.229Z,23.00
2022-10-31T07:14:37.725Z,22.85
2022-10-31T07:17:04.053Z,22.73
2022-10-31T07:19:37.450Z,22.74
2022-10-31T07:22:03.787Z,23.05
2022-10-31T07:24:31.364Z,23.26
2022-10-31T07:27:23.727Z,23.42
2022-10-31T07:29:50.050Z,23.03
2022-10-31T07:32:16.924Z,22.91
2022-10-31T07:34:50.477Z,22.87
2022-10-31T07:37:20.482Z,22.64
2022-10-31T07:39:47.942Z,23.05
2022-10-31T07:42:14.297Z,22.65
2022-10-31T07:44:44.130Z,22.23
2022-10-31T07:47:45.939Z,22.20
2022-10-31T07:50:40.991Z,22.18
2022-10-31T07:53:36.052Z,22.19
2022-10-31T07:56:18.143Z,22.17
2022-10-31T07:58:44.661Z,22.20
2022-10-31T08:03:50.641Z,22.12
2022-10-31T08:06:35.494Z,22.13
2022-10-31T08:09:16.308Z,22.13
2022-10-31T08:11:44.497Z,22.11
2022-10-31T08:14:10.835Z,22.05
2022-10-31T08:16:37.172Z,22.06
2022-10-31T08:19:05.681Z,22.01
2022-10-31T08:21:37.179Z,22.02
2022-10-31T08:24:03.612Z,21.96
2022-10-31T08:26:30.010Z,22.24
2022-10-31T08:28:56.687Z,22.83
2022-10-31T08:31:32.982Z,22.73
2022-10-31T08:34:18.813Z,22.66
2022-10-31T08:37:05.113Z,22.66
2022-10-31T08:39:39.864Z,22.75
2022-10-31T08:42:06.242Z,22.88
2022-10-31T08:44:32.595Z,22.88
2022-10-31T08:46:58.930Z,22.81
2022-10-31T08:49:25.288Z,22.77
2022-10-31T08:51:52.066Z,22.77
2022-10-31T08:54:20.579Z,22.90
2022-10-31T08:56:49.571Z,22.90
2022-10-31T08:59:29.458Z,22.95
2022-10-31T09:02:14.353Z,22.88
2022-10-31T09:04:40.733Z,22.74
2022-10-31T09:07:22.487Z,22.73
2022-10-31T09:09:48.815Z,22.75
2022-10-31T09:12:15.161Z,22.86
2022-10-31T09:15:07.747Z,22.74
2022-10-31T09:17:48.686Z,22.80
2022-10-31T09:20:30.576Z,22.91
2022-10-31T09:22:58.383Z,22.97
2022-10-31T09:25:24.755Z,23.00
2022-10-31T09:28:05.382Z,23.05
2022-10-31T09:30:32.513Z,23.05
2022-10-31T09:32:59.649Z,22.72
2022-10-31T09:35:26.145Z,22.58
2022-10-31T09:37:55.844Z,22.57
2022-10-31T09:40:22.295Z,22.42
2022-10-31T09:42:52.345Z,22.38
2022-10-31T09:45:26.227Z,22.36
2022-10-31T09:48:08.864Z,22.32
2022-10-31T09:50:44.384Z,22.35
2022-10-31T09:53:38.735Z,22.53
2022-10-31T09:56:07.255Z,22.58
2022-10-31T09:58:36.715Z,22.76
2022-10-31T10:01:04.763Z,22.83
2022-10-31T10:03:36.193Z,22.80
2022-10-31T10:06:16.158Z,22.87
2022-10-31T10:09:17.666Z,22.88
2022-10-31T10:12:15.835Z,22.79
2022-10-31T10:14:45.759Z,22.78
2022-10-31T10:17:24.109Z,22.78
2022-10-31T10:19:54.554Z,22.89
2022-10-31T10:22:30.197Z,22.84
2022-10-31T10:25:11.855Z,22.73
2022-10-31T10:27:57.131Z,22.72
2022-10-31T10:30:24.577Z,22.72
2022-10-31T10:33:04.056Z,22.71
2022-10-31T10:35:31.373Z,22.84
2022-10-31T10:38:16.114Z,22.77
2022-10-31T10:40:42.447Z,22.81
2022-10-31T10:43:22.993Z,22.87
2022-10-31T10:46:27.007Z,22.95
2022-10-31T10:48:56.087Z,22.65
2022-10-31T10:51:47.046Z,22.27
2022-10-31T10:54:14.675Z,22.37
2022-10-31T10:56:43.374Z,22.52
2022-10-31T10:59:10.811Z,22.92
2022-10-31T11:01:37.127Z,23.00
2022-10-31T11:04:03.628Z,23.00
2022-10-31T11:06:30.013Z,23.09
2022-10-31T11:08:56.338Z,23.07
2022-10-31T11:11:26.716Z,23.04
2022-10-31T11:14:13.234Z,23.02
2022-10-31T11:16:41.537Z,22.93
2022-10-31T11:19:15.914Z,22.86
2022-10-31T11:21:42.243Z,22.91
2022-10-31T11:24:11.346Z,22.98
2022-10-31T11:26:41.346Z,23.03
2022-10-31T11:29:13.548Z,23.07
2022-10-31T11:31:39.868Z,23.09
2022-10-31T11:34:07.282Z,23.12
2022-10-31T11:36:34.597Z,23.12
2022-10-31T11:39:01.028Z,23.17
2022-10-31T11:41:28.773Z,23.09
2022-10-31T11:43:58.869Z,23.10
2022-10-31T11:46:34.127Z,23.11
2022-10-31T11:49:00.455Z,23.06
2022-10-31T11:51:28.855Z,23.07
2022-10-31T11:53:59.833Z,23.09
2022-10-31T11:56:29.486Z,23.11
2022-10-31T11:58:57.022Z,23.15
2022-10-31T12:01:27.121Z,22.77
2022-10-31T12:04:07.888Z,22.55
2022-10-31T12:06:35.065Z,22.56
2022-10-31T12:09:01.421Z,22.69
2022-10-31T12:11:46.279Z,22.74
2022-10-31T12:14:38.749Z,22.64
2022-10-31T12:17:07.521Z,22.48
2022-10-31T12:19:36.890Z,22.61
2022-10-31T12:22:21.352Z,22.85
2022-10-31T12:24:53.747Z,22.46
2022-10-31T12:27:23.957Z,22.14
2022-10-31T12:29:59.397Z,22.21
2022-10-31T12:32:41.058Z,22.40
2022-10-31T12:35:25.797Z,22.62
2022-10-31T12:37:52.066Z,22.59
2022-10-31T12:40:30.699Z,22.57
2022-10-31T12:43:00.500Z,22.57
2022-10-31T12:45:45.922Z,22.58
2022-10-31T12:48:12.295Z,22.67
2022-10-31T12:50:41.798Z,22.56
2022-10-31T12:53:08.199Z,22.58
2022-10-31T12:55:47.269Z,22.75
2022-10-31T12:58:24.443Z,22.98
2022-10-31T13:00:52.649Z,23.02
2022-10-31T13:03:45.143Z,23.05
2022-10-31T13:06:13.954Z,23.03
2022-10-31T13:08:41.685Z,23.15
2022-10-31T13:11:11.045Z,23.12
2022-10-31T13:13:40.307Z,22.61
2022-10-31T13:16:11.583Z,22.57
2022-10-31T13:18:41.716Z,22.81
2022-10-31T13:21:17.869Z,22.90
2022-10-31T13:23:50.744Z,22.88
2022-10-31T13:26:35.467Z,22.82
2022-10-31T13:29:16.784Z,22.83
2022-10-31T13:31:43.214Z,22.95
2022-10-31T13:34:11.851Z,23.11
2022-10-31T13:36:39.592Z,23.10
2022-10-31T13:39:13.343Z,23.02
2022-10-31T13:41:48.064Z,22.98
2022-10-31T13:44:16.027Z,22.94
2022-10-31T13:49:29.169Z,22.92
2022-10-31T13:52:13.877Z,22.90
2022-10-31T13:54:47.432Z,22.88
2022-10-31T13:57:13.875Z,22.95
2022-10-31T13:59:40.218Z,23.00
2022-10-31T14:02:18.939Z,22.93
2022-10-31T14:04:46.157Z,22.80
2022-10-31T14:07:13.496Z,22.73
2022-10-31T14:09:40.529Z,22.85
2022-10-31T14:12:08.140Z,22.89
2022-10-31T14:14:36.063Z,22.91
2022-10-31T14:17:02.415Z,22.96
2022-10-31T14:19:28.780Z,22.94
2022-10-31T14:21:55.100Z,22.76
2022-10-31T14:24:24.385Z,22.77
2022-10-31T14:26:54.755Z,22.88
2022-10-31T14:29:22.095Z,22.84
2022-10-31T14:31:55.331Z,22.91
2022-10-31T14:34:28.497Z,22.90
2022-10-31T14:37:13.633Z,22.90
2022-10-31T14:39:39.887Z,22.85
2022-10-31T14:42:19.519Z,22.67
2022-10-31T14:44:48.752Z,22.60
2022-10-31T14:47:21.637Z,23.02
2022-10-31T14:49:47.890Z,23.05
2022-10-31T14:52:14.507Z,23.16
2022-10-31T14:54:44.934Z,23.17
2022-10-31T14:57:15.913Z,23.23
2022-10-31T14:59:43.345Z,23.27
2022-10-31T15:02:11.732Z,23.16
2022-10-31T15:04:38.184Z,23.15
2022-10-31T15:07:17.192Z,23.04
2022-10-31T15:09:46.740Z,23.05
2022-10-31T15:12:23.189Z,23.09
2022-10-31T15:14:49.516Z,23.15
2022-10-31T15:17:15.819Z,23.24
2022-10-31T15:19:42.130Z,23.17
2022-10-31T15:22:08.436Z,23.21
2022-10-31T15:24:35.601Z,23.12
2022-10-31T15:27:04.846Z,23.13
2022-10-31T15:29:31.714Z,23.15
2022-10-31T15:32:16.973Z,23.04
2022-10-31T15:34:43.570Z,23.17
2022-10-31T15:37:14.614Z,23.27
2022-10-31T15:39:40.969Z,23.21
2022-10-31T15:42:20.802Z,23.66
2022-10-31T15:44:48.254Z,23.57
2022-10-31T15:47:17.776Z,23.70
2022-10-31T15:49:54.502Z,23.68
2022-10-31T15:52:35.170Z,23.52
2022-10-31T15:55:05.518Z,23.48
2022-10-31T15:57:31.933Z,23.51
2022-10-31T15:59:58.272Z,23.44
2022-10-31T16:02:25.533Z,23.48
2022-10-31T16:04:53.469Z,23.49
2022-10-31T16:07:23.170Z,23.51
2022-10-31T16:10:00.013Z,23.17
2022-10-31T16:12:31.150Z,23.12
2022-10-31T16:14:57.498Z,23.17
2022-10-31T16:17:24.059Z,23.28
2022-10-31T16:19:51.935Z,23.27
2022-10-31T16:22:25.604Z,23.20
2022-10-31T16:24:56.509Z,23.18
2022-10-31T16:27:26.567Z,23.19
2022-10-31T16:29:52.969Z,23.13
2022-10-31T16:32:31.507Z,23.15
2022-10-31T16:34:58.673Z,23.22
2022-10-31T16:37:25.060Z,23.26
2022-10-31T16:39:51.395Z,23.06
2022-10-31T16:42:17.737Z,23.05
2022-10-31T16:44:44.677Z,23.20
2022-10-31T16:47:13.265Z,23.16
2022-10-31T16:49:39.641Z,22.89
2022-10-31T16:52:06.126Z,23.09
2022-10-31T16:54:32.445Z,23.29
2022-10-31T16:56:59.266Z,23.36
2022-10-31T16:59:25.635Z,23.16
2022-10-31T17:01:52.055Z,22.72
2022-10-31T17:04:18.925Z,22.77
2022-10-31T17:06:45.340Z,22.64
2022-10-31T17:09:11.659Z,22.64
2022-10-31T17:11:37.985Z,22.46
2022-10-31T17:14:04.593Z,22.44
2022-10-31T17:16:31.059Z,22.42
2022-10-31T17:18:57.521Z,22.62
2022-10-31T17:21:24.334Z,22.49
2022-10-31T17:23:50.813Z,22.39
2022-10-31T17:26:17.237Z,22.30
2022-10-31T17:28:43.628Z,22.30
2022-10-31T17:31:11.928Z,22.32
2022-10-31T17:33:38.264Z,22.27
2022-10-31T17:36:04.674Z,22.38
2022-10-31T17:38:30.995Z,22.44
2022-10-31T17:40:57.316Z,22.44
2022-10-31T17:43:27.017Z,22.47
2022-10-31T17:45:53.437Z,22.46
2022-10-31T17:48:19.773Z,22.40
2022-10-31T17:50:46.118Z,22.40
2022-10-31T17:53:12.422Z,22.52
2022-10-31T17:55:38.731Z,22.74
2022-10-31T17:58:05.121Z,22.85
2022-10-31T18:00:31.468Z,22.89
2022-10-31T18:02:57.904Z,22.79
2022-10-31T18:05:24.336Z,22.75
2022-10-31T18:07:51.100Z,22.59
2022-10-31T18:10:17.421Z,22.59
2022-10-31T18:12:43.916Z,22.46
2022-10-31T18:15:10.326Z,22.44
2022-10-31T18:17:39.454Z,22.40
2022-10-31T18:20:08.549Z,22.41
2022-10-31T18:22:34.870Z,22.51
2022-10-31T18:25:02.272Z,22.52
2022-10-31T18:27:30.071Z,22.50
2022-10-31T18:29:56.391Z,22.41
2022-10-31T18:32:22.706Z,22.43
2022-10-31T18:34:49.037Z,22.42
2022-10-31T18:37:15.368Z,22.45
2022-10-31T18:39:41.942Z,22.46
2022-10-31T18:42:08.302Z,22.42
2022-10-31T18:44:34.664Z,22.52
2022-10-31T18:47:00.977Z,22.57
2022-10-31T18:49:29.231Z,22.53
2022-10-31T18:51:55.635Z,22.51
2022-10-31T18:54:21.960Z,22.27
2022-10-31T18:56:48.300Z,22.02
2022-10-31T18:59:14.613Z,21.52
2022-10-31T19:01:41.076Z,21.29
2022-10-31T19:04:07.531Z,21.23
2022-10-31T19:06:33.871Z,21.23
2022-10-31T19:09:00.882Z,21.10
2022-10-31T19:11:27.228Z,20.93
2022-10-31T19:13:53.566Z,20.92
2022-10-31T19:16:19.885Z,20.62
2022-10-31T19:18:46.230Z,20.96
2022-10-31T19:21:16.834Z,21.34
2022-10-31T19:23:43.291Z,21.49
2022-10-31T19:26:09.678Z,21.64
2022-10-31T19:28:36.340Z,21.73
2022-10-31T19:31:02.662Z,21.76
2022-10-31T19:33:34.894Z,21.74
2022-10-31T19:36:03.499Z,21.73
2022-10-31T19:38:29.832Z,21.75
2022-10-31T19:40:57.211Z,21.78
2022-10-31T19:45:54.417Z,21.74
2022-10-31T19:48:20.735Z,21.77
2022-10-31T19:50:47.041Z,21.80
2022-10-31T19:53:13.389Z,21.80
2022-10-31T19:55:40.033Z,21.79
2022-10-31T19:58:06.363Z,21.82
2022-10-31T20:00:32.663Z,21.79
2022-10-31T20:02:59.307Z,21.82
2022-10-31T20:05:25.958Z,21.83
2022-10-31T20:07:52.297Z,21.86
2022-10-31T20:10:18.609Z,21.80
2022-10-31T20:12:44.945Z,21.84
2022-10-31T20:15:11.268Z,21.84
2022-10-31T20:17:37.568Z,21.83
2022-10-31T20:20:08.679Z,21.84
2022-10-31T20:22:35.643Z,21.81
2022-10-31T20:25:01.989Z,21.81
2022-10-31T20:27:28.669Z,21.80
2022-10-31T20:29:55.008Z,21.83
2022-10-31T20:32:21.464Z,21.88
2022-10-31T20:37:19.011Z,21.89
2022-10-31T20:39:45.340Z,21.88
2022-10-31T20:42:12.061Z,21.87
2022-10-31T20:44:38.371Z,21.85
2022-10-31T20:47:06.532Z,21.84
2022-10-31T20:49:32.852Z,21.84
2022-10-31T20:51:59.169Z,21.87
2022-10-31T20:54:25.498Z,21.88
2022-10-31T20:56:51.807Z,21.89
2022-10-31T20:59:19.813Z,21.88
2022-10-31T21:01:46.224Z,21.90
2022-10-31T21:04:12.667Z,21.83
2022-10-31T21:06:38.995Z,21.83
2022-10-31T21:09:05.323Z,21.83
2022-10-31T21:11:31.765Z,21.79
2022-10-31T21:13:58.382Z,21.80
2022-10-31T21:16:25.772Z,21.80
2022-10-31T21:18:52.216Z,21.81
2022-10-31T21:21:19.708Z,21.83
2022-10-31T21:23:46.023Z,21.86
2022-10-31T21:26:16.478Z,21.88
2022-10-31T21:28:42.810Z,21.90
2022-10-31T21:31:09.844Z,21.89
2022-10-31T21:33:36.180Z,21.83
2022-10-31T21:36:02.594Z,21.83
2022-10-31T21:38:28.899Z,21.84
2022-10-31T21:41:01.928Z,21.86
2022-10-31T21:43:28.251Z,21.85
2022-10-31T21:45:54.564Z,21.82
2022-10-31T21:48:20.895Z,21.84
2022-10-31T21:50:47.201Z,21.82
2022-10-31T21:53:32.254Z,21.85
2022-10-31T21:56:02.189Z,21.85
2022-10-31T21:58:28.866Z,21.82
2022-10-31T22:00:55.267Z,21.85
2022-10-31T22:03:21.666Z,21.83
2022-10-31T22:05:48.015Z,21.81
2022-10-31T22:08:14.375Z,21.83
2022-10-31T22:10:40.684Z,21.83
2022-10-31T22:13:07.092Z,21.85
2022-10-31T22:15:33.469Z,21.83
2022-10-31T22:18:00.118Z,21.83
2022-10-31T22:20:26.604Z,21.82
2022-10-31T22:22:52.968Z,21.84
2022-10-31T22:25:19.284Z,21.83
2022-10-31T22:27:45.600Z,21.83
2022-10-31T22:30:11.916Z,21.81
2022-10-31T22:32:38.235Z,21.81
2022-10-31T22:35:04.719Z,21.84
2022-10-31T22:37:31.031Z,21.82
2022-10-31T22:39:57.342Z,21.83
2022-10-31T22:42:23.666Z,21.81
2022-10-31T22:44:50.042Z,21.81
2022-10-31T22:47:16.360Z,21.80
2022-10-31T22:49:42.758Z,21.75
2022-10-31T22:52:09.080Z,21.73
2022-10-31T22:54:35.392Z,21.72
2022-10-31T22:57:01.724Z,21.72
2022-10-31T22:59:28.038Z,21.72
2022-10-31T23:01:54.546Z,21.71
2022-10-31T23:04:21.071Z,21.72
2022-10-31T23:06:49.031Z,21.72
2022-10-31T23:09:15.562Z,21.71
2022-10-31T23:11:41.885Z,21.70
2022-10-31T23:14:10.439Z,21.70
2022-10-31T23:16:38.343Z,21.78
2022-10-31T23:19:08.008Z,21.74
2022-10-31T23:21:54.303Z,21.77
2022-10-31T23:24:24.040Z,21.77
2022-10-31T23:27:09.085Z,21.74
2022-10-31T23:29:35.333Z,21.74
2022-10-31T23:32:01.960Z,21.75
2022-10-31T23:34:28.301Z,21.74
2022-10-31T23:36:54.725Z,21.73
2022-10-31T23:39:24.218Z,21.74
2022-10-31T23:41:51.528Z,21.72
2022-10-31T23:44:17.847Z,21.75
2022-10-31T23:46:44.181Z,21.73
2022-10-31T23:49:10.505Z,21.75
2022-10-31T23:51:36.813Z,21.75
2022-10-31T23:54:03.151Z,21.75
2022-10-31T23:56:29.513Z,21.72
2022-10-31T23:58:55.871Z,21.70
